Time;durP1;ratioP1;P1;durP2;ratioP2;P2;SDS_P1;SDS_P2;PMS_P1;PMS_P2;Temp;Humidity;BMP_temperature;BMP_pressure;BME280_temperature;BME280_humidity;BME280_pressure;Samples;Min_cycle;Max_cycle;Signal;HPM_P1;HPM_P2
2021/07/13 00:00:12;;;;;;;6.32;5.20;;;;;;;31.39;27.99;94438.03;5055234;28;20490;-52
2021/07/13 00:02:39;;;;;;;7.55;5.97;;;;;;;30.54;29.29;94429.59;5054453;28;20049;-51
2021/07/13 00:05:10;;;;;;;6.35;5.75;;;;;;;30.87;28.91;94443.28;5055475;28;20470;-52
2021/07/13 00:07:37;;;;;;;7.78;6.07;;;;;;;31.18;28.31;94439.25;5054859;28;20056;-52
2021/07/13 00:10:07;;;;;;;7.03;5.65;;;;;;;31.48;28.28;94435.53;5055142;28;20057;-52
2021/07/13 00:12:34;;;;;;;7.20;5.88;;;;;;;31.11;28.65;94439.34;5054880;28;20459;-53
2021/07/13 00:15:03;;;;;;;5.85;5.20;;;;;;;31.21;28.61;94443.81;5055277;28;20040;-52
2021/07/13 00:17:30;;;;;;;6.50;5.18;;;;;;;31.43;28.45;94448.78;5055089;28;20045;-50
2021/07/13 00:19:57;;;;;;;6.88;5.70;;;;;;;31.41;28.27;94441.09;5054009;28;20059;-52
2021/07/13 00:22:25;;;;;;;6.15;5.50;;;;;;;31.03;28.75;94437.97;5054181;28;20045;-52
2021/07/13 00:24:52;;;;;;;6.80;5.70;;;;;;;31.17;28.45;94443.13;5053700;28;20087;-52
2021/07/13 00:27:19;;;;;;;7.13;5.70;;;;;;;31.14;28.76;94449.31;5055094;28;20057;-51
2021/07/13 00:29:46;;;;;;;8.77;5.68;;;;;;;31.17;28.36;94445.81;5054275;28;20049;-54
2021/07/13 00:32:13;;;;;;;5.85;5.25;;;;;;;31.06;28.92;94453.34;5054309;28;20379;-50
2021/07/13 00:34:40;;;;;;;7.13;5.90;;;;;;;30.96;29.05;94446.19;5054923;28;20041;-49
2021/07/13 00:37:07;;;;;;;6.45;5.85;;;;;;;30.78;29.08;94454.63;5052806;28;20049;-53
2021/07/13 00:39:34;;;;;;;6.75;5.90;;;;;;;30.77;28.86;94452.34;5033919;28;20049;-51
2021/07/13 00:42:02;;;;;;;7.00;5.78;;;;;;;30.85;28.57;94451.03;5034596;28;20033;-52
2021/07/13 00:44:29;;;;;;;6.25;5.65;;;;;;;31.06;28.17;94452.59;5054755;28;20053;-51
2021/07/13 00:46:57;;;;;;;5.85;5.28;;;;;;;30.47;29.32;94445.91;5053183;28;20055;-52
2021/07/13 00:49:24;;;;;;;7.80;5.50;;;;;;;30.49;29.15;94450.91;5053281;28;20355;-52
2021/07/13 00:51:51;;;;;;;7.93;5.82;;;;;;;30.68;29.06;94448.25;5054094;28;20052;-52
2021/07/13 00:54:19;;;;;;;7.45;5.97;;;;;;;30.65;28.90;94451.78;5054921;28;20048;-52
2021/07/13 00:56:51;;;;;;;7.28;5.88;;;;;;;30.72;28.70;94447.44;5054613;28;20363;-53
2021/07/13 00:59:18;;;;;;;6.03;5.53;;;;;;;30.86;28.90;94447.16;5054216;28;20045;-50
2021/07/13 01:01:47;;;;;;;8.35;5.80;;;;;;;30.44;29.39;94449.41;5053992;28;20049;-51
2021/07/13 01:04:16;;;;;;;6.35;5.85;;;;;;;30.48;29.13;94443.97;5053686;28;20041;-50
2021/07/13 01:06:49;;;;;;;6.13;5.53;;;;;;;30.16;29.98;94441.78;5054384;28;20053;-51
2021/07/13 01:09:42;;;;;;;6.65;5.70;;;;;;;30.94;28.46;94440.44;5054201;28;20045;-52
2021/07/13 01:12:15;;;;;;;6.43;5.75;;;;;;;30.51;28.93;94445.84;5053997;28;20045;-51
2021/07/13 01:14:52;;;;;;;6.30;5.47;;;;;;;30.72;28.90;94444.75;5054462;28;20048;-53
2021/07/13 01:17:53;;;;;;;6.15;5.55;;;;;;;30.69;28.89;94438.22;5053320;28;20056;-50
2021/07/13 01:20:26;;;;;;;6.20;5.60;;;;;;;31.03;28.60;94432.59;5044942;28;20060;-50
2021/07/13 01:23:27;;;;;;;5.90;5.35;;;;;;;30.40;29.70;94435.22;5054136;28;20056;-53
2021/07/13 01:26:35;;;;;;;6.18;5.50;;;;;;;30.71;29.24;94437.81;5053650;28;20140;-51
2021/07/13 01:29:09;;;;;;;6.00;5.10;;;;;;;30.53;29.48;94443.50;5054272;28;20044;-53
2021/07/13 01:31:38;;;;;;;6.00;5.50;;;;;;;30.98;28.74;94446.56;5052677;28;20045;-50
2021/07/13 01:34:17;;;;;;;6.75;5.30;;;;;;;30.37;29.60;94447.59;5054241;28;20052;-51
2021/07/13 01:36:47;;;;;;;5.80;5.15;;;;;;;30.61;29.35;94453.78;5052268;28;20041;-52
2021/07/13 01:39:17;;;;;;;6.50;5.70;;;;;;;30.42;29.83;94454.44;5052812;28;20464;-51
2021/07/13 01:41:48;;;;;;;5.97;5.38;;;;;;;30.51;29.37;94457.41;5038676;28;20299;-52
2021/07/13 01:44:18;;;;;;;8.77;6.10;;;;;;;30.15;30.06;94461.84;5052420;28;20355;-50
2021/07/13 01:46:46;;;;;;;7.80;5.57;;;;;;;29.84;30.49;94464.56;5054169;28;20391;-50
2021/07/13 01:49:19;;;;;;;6.13;5.10;;;;;;;30.57;29.13;94466.53;5053394;28;20490;-51
2021/07/13 01:51:48;;;;;;;9.50;6.20;;;;;;;30.05;29.63;94458.91;5056970;28;20059;-54
2021/07/13 01:54:16;;;;;;;6.10;5.53;;;;;;;30.06;29.96;94465.81;5057830;28;20048;-51
2021/07/13 01:56:46;;;;;;;8.02;5.60;;;;;;;30.17;29.74;94460.25;5057915;28;20051;-54
2021/07/13 01:59:16;;;;;;;7.15;5.38;;;;;;;30.58;29.05;94451.13;5057509;28;20474;-52
2021/07/13 02:01:46;;;;;;;7.05;5.47;;;;;;;30.06;30.02;94456.97;5055505;28;20056;-54
2021/07/13 02:04:14;;;;;;;6.60;6.00;;;;;;;29.85;30.31;94449.94;5056709;28;20053;-51
2021/07/13 02:06:45;;;;;;;6.40;5.80;;;;;;;29.91;30.12;94459.06;5056662;28;20044;-50
2021/07/13 02:09:13;;;;;;;6.03;5.40;;;;;;;30.35;29.49;94451.88;5055518;28;20463;-53
2021/07/13 02:11:48;;;;;;;6.00;5.40;;;;;;;30.25;29.50;94453.59;5057046;28;20432;-51
2021/07/13 02:14:15;;;;;;;7.25;5.55;;;;;;;29.74;30.61;94449.34;5056573;28;20700;-52
2021/07/13 02:16:42;;;;;;;6.65;5.82;;;;;;;29.85;29.86;94447.22;5057525;28;20056;-51
2021/07/13 02:19:10;;;;;;;7.22;5.65;;;;;;;29.81;30.17;94448.47;5056294;28;20048;-52
2021/07/13 02:21:37;;;;;;;7.75;5.40;;;;;;;30.04;29.77;94457.38;5056882;28;20062;-51
2021/07/13 02:24:05;;;;;;;6.32;5.75;;;;;;;30.07;29.74;94445.78;5055774;28;20049;-52
2021/07/13 02:26:43;;;;;;;6.43;5.63;;;;;;;30.35;29.51;94444.56;5057471;28;20375;-52
2021/07/13 02:29:31;;;;;;;7.78;5.70;;;;;;;30.05;30.18;94448.13;5039356;28;20051;-51
2021/07/13 02:32:02;;;;;;;6.15;5.65;;;;;;;30.15;29.81;94440.25;5054439;28;20048;-50
2021/07/13 02:34:31;;;;;;;5.90;5.30;;;;;;;29.87;30.34;94447.59;5055891;28;20371;-51
2021/07/13 02:37:01;;;;;;;6.05;5.45;;;;;;;30.08;30.14;94444.59;5056138;28;20052;-52
2021/07/13 02:39:31;;;;;;;6.72;5.80;;;;;;;30.37;29.60;94450.28;5056810;28;20056;-52
2021/07/13 02:41:58;;;;;;;9.52;5.57;;;;;;;30.26;29.74;94446.25;5056727;28;20048;-51
2021/07/13 02:44:28;;;;;;;9.50;6.32;;;;;;;29.59;30.80;94448.75;5055671;28;20049;-52
2021/07/13 02:46:56;;;;;;;6.93;6.13;;;;;;;29.97;30.27;94449.38;5055974;28;20048;-52
2021/07/13 02:49:28;;;;;;;6.05;5.55;;;;;;;29.92;30.46;94449.81;5055539;28;20041;-53
2021/07/13 02:51:55;;;;;;;6.82;5.93;;;;;;;29.45;31.34;94449.72;5056507;28;20049;-50
2021/07/13 02:54:25;;;;;;;6.00;5.50;;;;;;;29.92;30.26;94454.44;5049000;28;20037;-50
2021/07/13 02:56:54;;;;;;;11.10;6.75;;;;;;;29.86;30.63;94448.75;5039139;28;20055;-50
2021/07/13 02:59:23;;;;;;;8.57;6.38;;;;;;;29.65;30.82;94451.75;5038802;28;20052;-49
2021/07/13 03:01:51;;;;;;;6.50;5.72;;;;;;;29.77;30.86;94451.22;5055233;28;20055;-50
2021/07/13 03:04:19;;;;;;;11.68;6.63;;;;;;;30.03;30.24;94458.53;5055108;28;20403;-50
2021/07/13 03:06:46;;;;;;;6.75;6.05;;;;;;;29.86;30.29;94450.69;5056588;28;20055;-53
2021/07/13 03:09:13;;;;;;;12.80;6.03;;;;;;;29.41;31.26;94459.75;5055208;28;20052;-51
2021/07/13 03:11:41;;;;;;;8.25;6.28;;;;;;;29.60;30.45;94454.91;5055156;28;20040;-51
2021/07/13 03:14:10;;;;;;;7.05;6.28;;;;;;;29.76;30.22;94463.91;5056274;28;20044;-51
2021/07/13 03:16:37;;;;;;;8.38;6.40;;;;;;;29.61;30.77;94462.56;5055277;28;20037;-51
2021/07/13 03:19:04;;;;;;;9.05;6.38;;;;;;;29.62;30.68;94461.41;5056147;28;20456;-51
2021/07/13 03:21:34;;;;;;;10.27;6.07;;;;;;;29.73;30.70;94455.88;5056130;28;20053;-51
2021/07/13 03:24:03;;;;;;;9.15;6.10;;;;;;;29.78;30.56;94455.44;5053998;28;20055;-49
2021/07/13 03:26:34;;;;;;;10.35;6.07;;;;;;;29.80;30.57;94455.78;5055550;28;20061;-51
2021/07/13 03:29:02;;;;;;;6.90;6.03;;;;;;;29.65;30.77;94446.38;5038250;28;20383;-50
2021/07/13 03:31:30;;;;;;;8.77;6.50;;;;;;;29.96;30.40;94455.19;5054977;28;20482;-51
2021/07/13 03:33:58;;;;;;;9.75;6.25;;;;;;;29.73;31.02;94459.34;5054650;28;20060;-52
2021/07/13 03:36:26;;;;;;;9.18;6.47;;;;;;;29.70;30.83;94452.09;5055045;28;20049;-48
2021/07/13 03:38:53;;;;;;;11.30;6.75;;;;;;;29.79;30.85;94446.19;5053754;28;20456;-49
2021/07/13 03:41:21;;;;;;;10.02;6.65;;;;;;;29.99;30.72;94447.03;5055921;28;20049;-51
2021/07/13 03:43:49;;;;;;;6.95;6.25;;;;;;;29.87;30.40;94452.97;5054629;28;20068;-49
2021/07/13 03:46:17;;;;;;;7.68;6.68;;;;;;;30.01;30.39;94458.16;5055923;28;20440;-52
2021/07/13 03:48:47;;;;;;;8.75;7.47;;;;;;;30.06;29.83;94455.03;5055463;28;20049;-49
2021/07/13 03:51:27;;;;;;;7.57;6.18;;;;;;;29.77;30.79;94453.91;5054111;28;20044;-52
2021/07/13 03:53:54;;;;;;;9.60;6.80;;;;;;;29.91;30.52;94463.69;5053636;28;20049;-52
2021/07/13 03:56:21;;;;;;;6.78;5.80;;;;;;;30.36;30.11;94461.50;5055687;28;20060;-53
2021/07/13 03:58:51;;;;;;;7.75;6.50;;;;;;;29.99;30.40;94465.91;5054474;28;20053;-51
2021/07/13 04:01:18;;;;;;;8.98;7.18;;;;;;;29.99;30.42;94452.44;5055460;28;20049;-54
2021/07/13 04:03:45;;;;;;;9.68;6.32;;;;;;;29.89;30.58;94453.31;5054006;28;20041;-52
2021/07/13 04:06:12;;;;;;;7.47;6.70;;;;;;;30.05;30.55;94453.50;5055434;28;20045;-49
2021/07/13 04:08:39;;;;;;;7.20;6.50;;;;;;;29.86;30.38;94451.44;5053427;28;20064;-53
2021/07/13 04:11:06;;;;;;;7.50;6.80;;;;;;;29.63;30.67;94448.69;5055068;28;20041;-52
2021/07/13 04:13:33;;;;;;;7.05;6.35;;;;;;;30.16;29.86;94455.25;5054103;28;20049;-50
2021/07/13 04:16:00;;;;;;;8.63;7.10;;;;;;;30.03;29.89;94452.41;5054117;28;20075;-51
2021/07/13 04:18:28;;;;;;;9.27;6.47;;;;;;;29.79;30.11;94451.56;5055193;28;20340;-55
2021/07/13 04:20:56;;;;;;;7.13;6.43;;;;;;;29.60;30.73;94455.66;5054807;28;20045;-53
2021/07/13 04:23:23;;;;;;;9.55;7.43;;;;;;;30.01;30.06;94457.41;5054907;28;20452;-51
2021/07/13 04:25:51;;;;;;;9.20;7.13;;;;;;;30.00;30.18;94443.16;5041338;28;20464;-50
2021/07/13 04:28:18;;;;;;;11.00;7.22;;;;;;;29.81;30.68;94449.22;5034860;28;20080;-52
2021/07/13 04:30:45;;;;;;;7.45;6.65;;;;;;;30.00;30.72;94445.88;5050698;28;20372;-54
2021/07/13 04:33:12;;;;;;;9.70;6.93;;;;;;;30.37;30.41;94442.22;5054783;28;20044;-55
2021/07/13 04:35:39;;;;;;;8.82;7.25;;;;;;;29.90;31.22;94457.53;5054418;28;20444;-51
2021/07/13 04:38:06;;;;;;;7.65;6.55;;;;;;;29.89;30.97;94452.56;5055034;28;20117;-53
2021/07/13 04:40:33;;;;;;;7.95;6.60;;;;;;;29.90;31.36;94446.78;5053942;28;20049;-52
2021/07/13 04:43:00;;;;;;;8.30;7.40;;;;;;;30.26;30.08;94451.66;5053553;28;20056;-49
2021/07/13 04:45:27;;;;;;;9.27;6.65;;;;;;;29.88;30.35;94449.09;5053524;28;20047;-51
2021/07/13 04:47:54;;;;;;;7.28;6.55;;;;;;;30.29;29.74;94456.22;5054102;28;20049;-51
2021/07/13 04:50:22;;;;;;;8.27;6.95;;;;;;;30.19;30.71;94455.25;5053466;28;20052;-53
2021/07/13 04:52:49;;;;;;;9.45;6.82;;;;;;;30.28;30.38;94452.00;5054568;28;20049;-51
2021/07/13 04:55:17;;;;;;;8.23;6.88;;;;;;;30.17;30.70;94452.16;5046230;28;20053;-51
2021/07/13 04:57:44;;;;;;;8.43;6.90;;;;;;;30.50;30.04;94447.78;5034095;28;20045;-51
2021/07/13 05:00:14;;;;;;;7.15;6.45;;;;;;;30.23;30.83;94447.84;5045108;28;20045;-50
2021/07/13 05:02:41;;;;;;;7.95;6.70;;;;;;;30.31;31.04;94459.28;5054249;28;20056;-51
2021/07/13 05:05:14;;;;;;;9.15;6.60;;;;;;;30.71;29.79;94446.69;5053495;28;20052;-53
2021/07/13 05:07:45;;;;;;;9.25;7.57;;;;;;;30.71;30.07;94443.19;5054346;28;20352;-49
2021/07/13 05:10:14;;;;;;;7.05;6.45;;;;;;;30.63;29.90;94458.75;5035757;28;20048;-53
2021/07/13 05:12:42;;;;;;;9.70;6.50;;;;;;;31.03;29.13;94448.78;5054313;28;20531;-49
2021/07/13 05:15:11;;;;;;;10.30;7.20;;;;;;;30.53;30.06;94446.97;5053290;28;20060;-51
2021/07/13 05:17:39;;;;;;;10.05;7.45;;;;;;;31.09;29.03;94441.72;5036672;28;20048;-51
2021/07/13 05:20:12;;;;;;;9.35;7.32;;;;;;;30.85;30.17;94442.94;5053200;28;20053;-50
2021/07/13 05:22:41;;;;;;;8.52;7.13;;;;;;;30.91;30.32;94441.28;5053293;28;20056;-51
2021/07/13 05:25:09;;;;;;;8.48;7.50;;;;;;;31.16;30.34;94436.19;5055501;28;20056;-51
2021/07/13 05:27:38;;;;;;;8.35;7.00;;;;;;;30.81;30.25;94437.63;5054446;28;20474;-54
2021/07/13 05:30:07;;;;;;;8.57;7.25;;;;;;;31.60;29.04;94443.00;5040697;28;20052;-52
2021/07/13 05:32:34;;;;;;;8.98;7.63;;;;;;;30.91;30.13;94439.34;5058206;28;20360;-52
2021/07/13 05:35:01;;;;;;;7.70;7.00;;;;;;;31.42;29.21;94441.84;5058390;28;20053;-53
2021/07/13 05:37:28;;;;;;;7.95;7.00;;;;;;;31.83;28.52;94444.84;5057965;28;20048;-52
2021/07/13 05:39:55;;;;;;;12.20;6.85;;;;;;;31.47;29.65;94446.75;5057868;28;20482;-52
2021/07/13 05:42:22;;;;;;;7.65;6.95;;;;;;;31.74;29.20;94446.59;5058092;28;20045;-51
2021/07/13 05:44:49;;;;;;;7.85;7.15;;;;;;;31.60;28.80;94442.25;5057359;28;20056;-52
2021/07/13 05:47:17;;;;;;;9.55;7.30;;;;;;;31.84;29.18;94449.06;5057953;28;20048;-53
2021/07/13 05:49:44;;;;;;;7.60;6.90;;;;;;;31.78;29.59;94453.47;5050749;28;20355;-52
2021/07/13 05:52:11;;;;;;;7.30;6.70;;;;;;;32.03;29.25;94457.53;5057093;28;20045;-51
2021/07/13 05:54:38;;;;;;;7.38;6.68;;;;;;;32.10;28.38;94452.72;5057442;28;20059;-51
2021/07/13 05:57:05;;;;;;;8.07;7.05;;;;;;;32.27;28.30;94453.53;5057191;28;20067;-54
2021/07/13 05:59:32;;;;;;;8.68;7.20;;;;;;;32.21;28.03;94442.41;5057516;28;20056;-54
2021/07/13 06:01:59;;;;;;;9.27;6.93;;;;;;;32.43;28.11;94442.69;5051116;28;20052;-50
2021/07/13 06:04:26;;;;;;;12.45;7.70;;;;;;;32.42;27.80;94440.41;5037811;28;20072;-51
2021/07/13 06:06:53;;;;;;;9.82;6.72;;;;;;;32.82;27.94;94442.91;5040559;28;20045;-51
2021/07/13 06:09:21;;;;;;;9.43;7.57;;;;;;;32.97;27.10;94452.91;5056984;28;20056;-54
2021/07/13 06:11:48;;;;;;;10.02;7.82;;;;;;;32.66;26.97;94447.13;5057402;28;20041;-49
2021/07/13 06:14:15;;;;;;;8.23;7.43;;;;;;;33.03;27.76;94451.19;5057558;28;20056;-52
2021/07/13 06:16:42;;;;;;;10.80;7.45;;;;;;;33.30;27.32;94458.19;5056867;28;20053;-52
2021/07/13 06:19:09;;;;;;;8.32;7.50;;;;;;;33.09;27.45;94449.50;5037630;28;20060;-54
2021/07/13 06:21:36;;;;;;;8.68;7.13;;;;;;;33.24;27.10;94433.59;5056264;28;20049;-50
2021/07/13 06:24:03;;;;;;;8.63;7.35;;;;;;;33.61;26.94;94451.16;5055774;28;20048;-53
2021/07/13 06:26:31;;;;;;;10.20;8.05;;;;;;;33.91;26.45;94441.75;5057465;28;20056;-53
2021/07/13 06:28:58;;;;;;;8.35;7.50;;;;;;;33.67;27.22;94449.41;5044736;28;20381;-50
2021/07/13 06:31:25;;;;;;;10.68;7.47;;;;;;;33.89;26.60;94451.50;5054985;28;20040;-52
2021/07/13 06:33:52;;;;;;;10.05;7.50;;;;;;;34.23;26.11;94462.44;5056535;28;20387;-52
2021/07/13 06:36:20;;;;;;;8.90;7.80;;;;;;;34.02;26.25;94457.69;5056238;28;20052;-52
2021/07/13 06:38:47;;;;;;;9.10;7.82;;;;;;;33.99;26.23;94453.88;5056061;28;20049;-52
2021/07/13 06:41:15;;;;;;;8.82;7.70;;;;;;;34.37;26.00;94457.78;5055342;28;20053;-52
2021/07/13 06:43:42;;;;;;;14.05;7.50;;;;;;;34.53;26.06;94452.22;5047304;28;20064;-51
2021/07/13 06:46:09;;;;;;;10.27;8.30;;;;;;;34.58;26.18;94454.34;5019130;28;20053;-52
2021/07/13 06:48:36;;;;;;;10.65;8.52;;;;;;;34.46;25.95;94449.72;5053229;28;20044;-55
2021/07/13 06:51:03;;;;;;;9.73;8.25;;;;;;;34.70;25.98;94450.09;5056760;28;20048;-51
2021/07/13 06:53:30;;;;;;;9.57;7.75;;;;;;;34.76;25.58;94459.97;5056113;28;20053;-51
2021/07/13 06:55:57;;;;;;;8.95;8.02;;;;;;;35.07;24.87;94446.50;5054428;28;20052;-53
2021/07/13 06:58:24;;;;;;;9.27;8.38;;;;;;;35.08;24.92;94444.53;5052359;28;20045;-53
2021/07/13 07:00:52;;;;;;;10.10;7.78;;;;;;;34.95;25.20;94444.59;5055685;28;20355;-55
2021/07/13 07:03:19;;;;;;;10.93;8.10;;;;;;;35.23;24.94;94442.84;5056430;28;20448;-54
2021/07/13 07:05:46;;;;;;;10.07;8.00;;;;;;;35.14;24.74;94440.81;5056046;28;20056;-54
2021/07/13 07:08:13;;;;;;;12.82;8.52;;;;;;;35.23;24.66;94443.59;5055469;28;20049;-57
2021/07/13 07:10:40;;;;;;;10.05;7.60;;;;;;;35.73;24.09;94436.34;5055513;28;20044;-54
2021/07/13 07:13:07;;;;;;;9.23;7.55;;;;;;;35.56;24.27;94437.00;5045045;28;20045;-54
2021/07/13 07:15:34;;;;;;;11.00;7.93;;;;;;;35.75;24.29;94433.94;5036563;28;20341;-51
2021/07/13 07:18:01;;;;;;;9.48;7.75;;;;;;;35.73;24.42;94430.91;5047701;28;20052;-53
2021/07/13 07:20:29;;;;;;;9.95;8.02;;;;;;;35.57;24.28;94433.09;5055370;28;20580;-51
2021/07/13 07:22:57;;;;;;;9.43;8.20;;;;;;;35.70;24.11;94420.94;5056166;28;20432;-55
2021/07/13 07:25:27;;;;;;;8.90;8.00;;;;;;;35.91;23.73;94422.06;5054716;28;20055;-52
2021/07/13 07:27:56;;;;;;;9.82;8.18;;;;;;;35.65;23.66;94412.56;5055679;28;20053;-56
2021/07/13 07:30:25;;;;;;;8.75;7.82;;;;;;;36.21;22.87;94417.03;5055915;28;20040;-56
2021/07/13 07:32:52;;;;;;;8.43;7.53;;;;;;;36.26;23.33;94413.72;5055985;28;20044;-53
2021/07/13 07:35:19;;;;;;;9.70;7.95;;;;;;;35.95;23.78;94411.06;5054395;28;20048;-53
2021/07/13 07:37:47;;;;;;;8.45;7.55;;;;;;;36.24;23.37;94416.13;5051008;28;20462;-54
2021/07/13 07:40:17;;;;;;;9.27;8.27;;;;;;;36.50;23.16;94408.50;5055601;28;20049;-54
2021/07/13 07:42:47;;;;;;;10.45;8.20;;;;;;;36.60;23.28;94399.88;5054912;28;20055;-52
2021/07/13 07:45:15;;;;;;;8.65;7.75;;;;;;;36.81;22.56;94400.19;5055921;28;20040;-55
2021/07/13 07:47:42;;;;;;;10.00;7.70;;;;;;;36.68;23.21;94403.78;5053907;28;20053;-55
2021/07/13 07:50:11;;;;;;;9.25;8.10;;;;;;;36.73;22.55;94395.03;5052118;28;20049;-52
2021/07/13 07:52:38;;;;;;;10.30;7.57;;;;;;;37.06;22.65;94402.59;5035760;28;20487;-53
2021/07/13 07:55:07;;;;;;;10.35;7.93;;;;;;;36.89;22.94;94398.66;5047214;28;20049;-55
2021/07/13 07:57:34;;;;;;;9.80;7.72;;;;;;;36.85;22.77;94395.34;5054730;28;20056;-51
2021/07/13 08:00:03;;;;;;;10.52;7.55;;;;;;;37.08;23.02;94397.44;5055429;28;20048;-55
2021/07/13 08:02:39;;;;;;;9.90;8.02;;;;;;;37.20;22.00;94396.50;5054466;28;20041;-51
2021/07/13 08:05:07;;;;;;;15.63;7.75;;;;;;;37.26;22.86;94402.91;5054835;28;20049;-54
2021/07/13 08:07:35;;;;;;;10.38;7.95;;;;;;;37.38;22.47;94400.44;5054327;28;20052;-52
2021/07/13 08:10:05;;;;;;;8.90;7.32;;;;;;;37.27;22.20;94398.94;5037551;28;20055;-54
2021/07/13 08:12:32;;;;;;;9.43;7.63;;;;;;;37.46;21.90;94404.34;5055288;28;20045;-52
2021/07/13 08:15:00;;;;;;;8.10;7.40;;;;;;;37.58;21.92;94395.97;5048201;28;20052;-54
2021/07/13 08:17:27;;;;;;;8.38;7.57;;;;;;;37.67;22.01;94408.81;5048468;28;20045;-53
2021/07/13 08:19:54;;;;;;;8.02;7.32;;;;;;;37.42;21.84;94403.75;5053999;28;20045;-53
2021/07/13 08:22:21;;;;;;;10.50;7.10;;;;;;;37.92;21.31;94407.66;5055149;28;20053;-51
2021/07/13 08:24:48;;;;;;;7.85;7.05;;;;;;;37.71;21.44;94406.69;5054549;28;20045;-53
2021/07/13 08:27:15;;;;;;;9.30;6.85;;;;;;;37.59;20.84;94402.19;5054942;28;20057;-52
2021/07/13 08:29:43;;;;;;;9.32;7.53;;;;;;;37.80;21.41;94395.00;5054212;28;20049;-52
2021/07/13 08:32:10;;;;;;;8.73;7.20;;;;;;;37.71;21.52;94398.50;5053902;28;20048;-56
2021/07/13 08:34:37;;;;;;;8.85;6.90;;;;;;;37.91;21.12;94392.53;5055026;28;20037;-54
2021/07/13 08:37:05;;;;;;;8.45;6.75;;;;;;;37.96;21.24;94397.34;5053845;28;20052;-55
2021/07/13 08:39:32;;;;;;;7.10;6.38;;;;;;;38.26;20.58;94392.81;5053708;28;20045;-52
2021/07/13 08:42:02;;;;;;;8.57;6.72;;;;;;;37.97;20.70;94383.25;5054558;28;20363;-55
2021/07/13 08:44:30;;;;;;;7.93;6.80;;;;;;;38.14;20.56;94391.78;5054944;28;20048;-53
2021/07/13 08:46:57;;;;;;;8.15;7.05;;;;;;;38.44;19.66;94381.75;5054488;28;20049;-54
2021/07/13 08:49:25;;;;;;;10.00;7.60;;;;;;;38.28;19.74;94378.72;5044197;28;20053;-54
2021/07/13 08:51:52;;;;;;;7.43;6.55;;;;;;;38.23;19.88;94389.03;5053671;28;20340;-51
2021/07/13 08:54:19;;;;;;;8.05;6.93;;;;;;;37.96;20.16;94387.19;5053396;28;20048;-51
2021/07/13 08:56:46;;;;;;;7.53;6.80;;;;;;;38.13;20.24;94389.53;5053809;28;20053;-53
2021/07/13 08:59:13;;;;;;;7.57;6.88;;;;;;;38.21;19.88;94379.78;5052686;28;20052;-53
2021/07/13 09:01:41;;;;;;;8.77;7.03;;;;;;;38.25;19.59;94385.84;5054322;28;20387;-52
2021/07/13 09:04:09;;;;;;;7.13;6.47;;;;;;;38.31;19.95;94389.44;5054474;28;20440;-54
2021/07/13 09:06:57;;;;;;;9.98;7.28;;;;;;;38.14;19.64;94385.59;5053602;28;20474;-51
2021/07/13 09:09:27;;;;;;;7.53;6.82;;;;;;;38.49;19.35;94383.84;5053757;28;20056;-55
2021/07/13 09:12:11;;;;;;;10.73;6.82;;;;;;;38.63;19.78;94384.41;5053491;28;20076;-54
2021/07/13 09:14:56;;;;;;;7.38;6.72;;;;;;;38.32;19.75;94390.97;5054528;28;20048;-52
2021/07/13 09:17:27;;;;;;;7.70;7.05;;;;;;;38.83;19.94;94379.81;5053631;28;20049;-53
2021/07/13 09:20:05;;;;;;;8.32;7.53;;;;;;;38.63;19.95;94381.66;5053908;28;20367;-53
2021/07/13 09:22:32;;;;;;;7.70;7.00;;;;;;;38.39;19.99;94385.16;5054207;28;20060;-57
2021/07/13 09:24:59;;;;;;;7.45;6.60;;;;;;;38.72;20.14;94385.06;5053813;28;20041;-53
2021/07/13 09:27:28;;;;;;;7.63;6.18;;;;;;;38.76;19.74;94384.88;5053432;28;20053;-54
2021/07/13 09:29:55;;;;;;;7.10;6.40;;;;;;;38.64;19.55;94388.63;5053484;28;20056;-53
2021/07/13 09:32:31;;;;;;;7.35;6.65;;;;;;;38.69;19.72;94385.25;5053201;28;20045;-54
2021/07/13 09:35:01;;;;;;;7.78;7.00;;;;;;;39.06;19.71;94386.47;5047202;28;20484;-52
2021/07/13 09:37:34;;;;;;;8.18;7.15;;;;;;;39.02;19.30;94385.84;5045288;28;20053;-54
2021/07/13 09:40:12;;;;;;;8.57;6.80;;;;;;;38.80;19.25;94385.47;5052937;28;20049;-53
2021/07/13 09:42:50;;;;;;;7.20;6.50;;;;;;;38.86;19.55;94383.59;5053616;28;20045;-54
2021/07/13 09:45:24;;;;;;;7.70;6.88;;;;;;;38.95;18.64;94380.00;5053183;28;20682;-55
2021/07/13 09:47:55;;;;;;;7.50;6.80;;;;;;;38.81;18.93;94384.25;5053607;28;20049;-53
2021/07/13 09:50:32;;;;;;;7.70;6.78;;;;;;;39.08;18.76;94378.56;5053989;28;20056;-54
2021/07/13 09:53:04;;;;;;;7.03;6.40;;;;;;;38.96;18.84;94381.53;5053261;28;20045;-56
2021/07/13 09:55:31;;;;;;;8.75;6.20;;;;;;;38.90;19.19;94378.69;5053368;28;20351;-53
2021/07/13 09:58:26;;;;;;;7.32;6.50;;;;;;;38.90;18.55;94375.97;5053782;28;20053;-53
2021/07/13 10:00:59;;;;;;;7.00;6.35;;;;;;;38.97;18.29;94370.13;5052570;28;20049;-55
2021/07/13 10:03:27;;;;;;;6.82;6.22;;;;;;;39.06;18.61;94370.06;5053913;28;20056;-53
2021/07/13 10:05:56;;;;;;;6.90;6.30;;;;;;;39.27;17.60;94359.97;5036393;28;20053;-55
2021/07/13 10:08:23;;;;;;;7.97;6.53;;;;;;;39.44;17.61;94366.47;5052350;28;20048;-53
2021/07/13 10:10:51;;;;;;;9.23;6.22;;;;;;;39.06;17.57;94359.16;5053732;28;20040;-52
2021/07/13 10:13:18;;;;;;;6.75;6.15;;;;;;;38.93;17.99;94355.88;5057698;28;20041;-53
2021/07/13 10:15:48;;;;;;;6.70;6.10;;;;;;;39.16;17.13;94360.53;5057456;28;20434;-56
2021/07/13 10:18:15;;;;;;;6.72;6.03;;;;;;;39.04;18.38;94360.81;5056428;28;20041;-53
2021/07/13 10:20:43;;;;;;;7.45;6.00;;;;;;;39.02;17.97;94355.78;5056896;28;20048;-56
2021/07/13 10:23:11;;;;;;;7.18;6.53;;;;;;;39.03;18.06;94343.63;5055735;28;20054;-53
2021/07/13 10:25:44;;;;;;;6.68;5.97;;;;;;;39.16;17.62;94346.88;5068337;28;20061;-54
2021/07/13 10:28:19;;;;;;;8.05;6.15;;;;;;;39.14;18.26;94349.34;5055810;28;20049;-54
2021/07/13 10:30:46;;;;;;;6.60;6.00;;;;;;;39.15;17.53;94361.78;5056915;28;20040;-53
2021/07/13 10:33:30;;;;;;;6.70;6.05;;;;;;;39.01;17.05;94348.06;5056410;28;20040;-53
2021/07/13 10:36:33;;;;;;;6.15;5.55;;;;;;;38.94;18.19;94345.72;5056691;28;20049;-54
2021/07/13 10:39:28;;;;;;;6.75;6.22;;;;;;;39.11;16.52;94339.34;5037839;28;20081;-51
2021/07/13 10:42:34;;;;;;;6.57;5.97;;;;;;;38.89;16.80;94335.44;5056456;28;20056;-52
2021/07/13 10:45:19;;;;;;;6.25;5.47;;;;;;;38.74;17.26;94349.09;5057094;28;20068;-49
2021/07/13 10:48:12;;;;;;;6.10;5.60;;;;;;;39.13;17.55;94336.91;5056600;28;20337;-52
2021/07/13 10:50:53;;;;;;;6.72;5.47;;;;;;;39.31;17.11;94340.66;5056715;28;20048;-52
2021/07/13 10:53:23;;;;;;;6.20;5.70;;;;;;;39.14;17.32;94337.66;5057257;28;20359;-52
2021/07/13 10:56:00;;;;;;;7.57;5.72;;;;;;;39.25;17.19;94337.81;5056411;28;20048;-52
2021/07/13 10:58:38;;;;;;;6.20;5.50;;;;;;;39.04;17.06;94331.50;5056039;28;20060;-57
2021/07/13 11:01:20;;;;;;;6.63;5.85;;;;;;;39.01;17.47;94326.97;5056317;28;20052;-55
2021/07/13 11:03:47;;;;;;;6.35;5.75;;;;;;;39.27;17.36;94323.69;5056399;28;20048;-55
2021/07/13 11:06:17;;;;;;;6.28;5.47;;;;;;;39.12;17.14;94318.25;5056667;28;20053;-55
2021/07/13 11:08:44;;;;;;;6.07;5.55;;;;;;;39.11;17.15;94320.22;5056455;28;20087;-53
2021/07/13 11:11:34;;;;;;;5.82;5.22;;;;;;;39.09;17.07;94317.22;5056143;28;20452;-53
2021/07/13 11:14:04;;;;;;;5.80;5.28;;;;;;;39.03;16.80;94321.78;5026423;28;20049;-53
2021/07/13 11:16:39;;;;;;;6.68;5.85;;;;;;;39.11;17.48;94322.94;5056383;28;20053;-53
2021/07/13 11:19:16;;;;;;;6.10;5.47;;;;;;;39.36;17.21;94316.13;5055596;28;20049;-53
2021/07/13 11:21:46;;;;;;;6.82;5.68;;;;;;;39.02;16.89;94312.06;5055423;28;20627;-54
2021/07/13 11:24:19;;;;;;;6.93;6.13;;;;;;;39.40;16.84;94308.50;5055670;28;20048;-54
2021/07/13 11:26:55;;;;;;;7.97;5.30;;;;;;;39.43;16.58;94315.00;5055127;28;20443;-54
2021/07/13 11:29:23;;;;;;;7.47;5.38;;;;;;;39.19;16.50;94311.63;5055485;28;20473;-54
2021/07/13 11:31:52;;;;;;;5.95;5.35;;;;;;;39.57;16.42;94308.78;5054926;28;20053;-55
2021/07/13 11:34:21;;;;;;;6.18;5.25;;;;;;;39.42;16.29;94308.78;5056519;28;20037;-53
2021/07/13 11:36:50;;;;;;;5.88;5.10;;;;;;;39.34;16.47;94301.44;5056094;28;20060;-53
2021/07/13 11:39:30;;;;;;;7.82;5.22;;;;;;;39.37;16.47;94301.25;5055721;28;20049;-53
2021/07/13 11:42:03;;;;;;;5.60;5.10;;;;;;;39.51;16.42;94299.72;5055735;28;20052;-55
2021/07/13 11:44:30;;;;;;;5.93;5.43;;;;;;;39.32;16.11;94295.69;5056045;28;20052;-54